createdAt,value
2017-07-29T00:00:21.243Z,98.60
2017-07-29T00:02:47.624Z,98.40
2017-07-29T00:05:13.992Z,98.50
2017-07-29T00:07:40.375Z,98.60
2017-07-29T00:10:06.733Z,98.60
2017-07-29T00:12:33.153Z,98.40
2017-07-29T00:15:00.279Z,98.50
2017-07-29T00:17:28.479Z,98.40
2017-07-29T00:19:54.963Z,98.80
2017-07-29T00:22:22.074Z,99.40
2017-07-29T00:24:48.475Z,99.30
2017-07-29T00:27:14.856Z,99.00
2017-07-29T00:29:41.243Z,99.00
2017-07-29T00:32:07.659Z,98.60
2017-07-29T00:34:34.035Z,99.00
2017-07-29T00:37:00.419Z,99.20
2017-07-29T00:39:26.890Z,99.10
2017-07-29T00:41:53.655Z,99.00
2017-07-29T00:44:20.031Z,98.90
2017-07-29T00:46:47.191Z,99.10
2017-07-29T00:49:13.559Z,99.00
2017-07-29T00:51:39.919Z,99.20
2017-07-29T00:54:06.291Z,99.30
2017-07-29T00:56:32.700Z,98.90
2017-07-29T00:58:59.103Z,98.90
2017-07-29T01:01:25.451Z,99.20
2017-07-29T01:03:51.847Z,99.00
2017-07-29T01:06:18.277Z,99.20
2017-07-29T01:08:44.647Z,99.20
2017-07-29T01:11:11.068Z,99.00
2017-07-29T01:13:37.479Z,99.30
2017-07-29T01:16:03.851Z,99.30
2017-07-29T01:18:30.275Z,99.30
2017-07-29T01:20:57.420Z,99.70
2017-07-29T01:23:23.803Z,99.70
2017-07-29T01:28:26.180Z,99.50
2017-07-29T01:30:52.603Z,99.50
2017-07-29T01:33:19.803Z,99.90
2017-07-29T01:35:46.903Z,99.90
2017-07-29T01:38:14.047Z,99.90
2017-07-29T01:40:40.477Z,99.90
2017-07-29T01:43:07.615Z,99.90
2017-07-29T01:45:34.045Z,99.90
2017-07-29T01:48:00.471Z,99.90
2017-07-29T01:50:26.867Z,99.90
2017-07-29T01:52:53.353Z,99.90
2017-07-29T01:55:19.732Z,99.80
2017-07-29T01:57:46.123Z,99.90
2017-07-29T02:00:12.570Z,99.90
2017-07-29T02:02:38.967Z,99.70
2017-07-29T02:05:05.443Z,99.80
2017-07-29T02:07:32.639Z,99.90
2017-07-29T02:09:59.039Z,99.90
2017-07-29T02:12:25.435Z,99.90
2017-07-29T02:14:51.855Z,99.90
2017-07-29T02:17:18.964Z,99.90
2017-07-29T02:19:45.363Z,99.90
2017-07-29T02:22:11.763Z,99.90
2017-07-29T02:27:14.871Z,99.90
2017-07-29T02:29:41.246Z,99.90
2017-07-29T02:32:07.591Z,99.90
2017-07-29T02:34:33.904Z,99.90
2017-07-29T02:37:00.182Z,99.90
2017-07-29T02:39:26.482Z,99.90
2017-07-29T02:41:52.766Z,99.90
2017-07-29T02:44:19.034Z,99.90
2017-07-29T02:46:45.318Z,99.90
2017-07-29T02:49:12.346Z,99.90
2017-07-29T02:51:38.615Z,99.90
2017-07-29T02:54:04.882Z,99.90
2017-07-29T02:56:31.193Z,99.90
2017-07-29T02:58:57.462Z,99.90
2017-07-29T03:01:23.739Z,99.90
2017-07-29T03:03:50.022Z,99.90
2017-07-29T03:06:17.330Z,99.90
2017-07-29T03:08:43.626Z,99.90
2017-07-29T03:11:09.922Z,99.90
2017-07-29T03:13:36.259Z,99.90
2017-07-29T03:16:02.530Z,99.90
2017-07-29T03:18:29.581Z,99.90
2017-07-29T03:20:55.826Z,99.90
2017-07-29T03:23:22.109Z,99.90
2017-07-29T03:25:48.406Z,99.90
2017-07-29T03:28:15.413Z,99.90
2017-07-29T03:30:41.695Z,99.90
2017-07-29T03:33:07.982Z,99.90
2017-07-29T03:35:34.242Z,99.90
2017-07-29T03:38:00.542Z,99.90
2017-07-29T03:40:26.833Z,99.90
2017-07-29T03:42:53.117Z,99.90
2017-07-29T03:45:19.370Z,99.90
2017-07-29T03:47:46.646Z,99.80
2017-07-29T03:50:12.935Z,99.90
2017-07-29T03:52:39.215Z,99.90
2017-07-29T03:55:05.518Z,99.90
2017-07-29T03:57:32.518Z,99.80
2017-07-29T03:59:58.781Z,99.80
2017-07-29T04:02:25.070Z,99.90
2017-07-29T04:04:51.330Z,99.90
2017-07-29T04:07:17.594Z,99.90
2017-07-29T04:09:43.904Z,99.90
2017-07-29T04:12:10.155Z,99.90
2017-07-29T04:14:36.434Z,99.90
2017-07-29T04:17:02.768Z,99.90
2017-07-29T04:19:29.756Z,99.90
2017-07-29T04:21:56.044Z,99.90
2017-07-29T04:24:22.332Z,99.90
2017-07-29T04:26:48.586Z,99.90
2017-07-29T04:29:14.878Z,99.90
2017-07-29T04:31:41.178Z,99.90
2017-07-29T04:34:07.426Z,99.90
2017-07-29T04:36:33.694Z,99.90
2017-07-29T04:38:59.986Z,99.90
2017-07-29T04:41:26.322Z,99.90
2017-07-29T04:43:52.571Z,99.90
2017-07-29T04:46:18.858Z,99.90
2017-07-29T04:48:45.162Z,99.90
2017-07-29T04:51:11.442Z,99.90
2017-07-29T04:53:37.751Z,99.90
2017-07-29T04:56:05.003Z,99.90
2017-07-29T04:58:31.254Z,99.90
2017-07-29T05:00:57.559Z,99.90
2017-07-29T05:03:23.830Z,99.90
2017-07-29T05:05:50.080Z,99.90
2017-07-29T05:08:16.382Z,99.90
2017-07-29T05:10:42.649Z,99.90
2017-07-29T05:13:08.943Z,99.90
2017-07-29T05:15:35.513Z,99.90
2017-07-29T05:18:01.762Z,99.90
2017-07-29T05:20:28.042Z,99.90
2017-07-29T05:22:54.318Z,99.90
2017-07-29T05:25:20.621Z,99.90
2017-07-29T05:27:46.889Z,99.90
2017-07-29T05:30:13.194Z,99.90
2017-07-29T05:32:39.603Z,99.80
2017-07-29T05:35:05.894Z,99.70
2017-07-29T05:37:32.910Z,99.90
2017-07-29T05:39:59.210Z,99.90
2017-07-29T05:42:25.487Z,99.90
2017-07-29T05:44:51.771Z,99.90
2017-07-29T05:47:18.042Z,99.90
2017-07-29T05:49:45.279Z,99.50
2017-07-29T05:52:11.560Z,99.70
2017-07-29T05:54:37.841Z,99.70
2017-07-29T05:57:04.106Z,99.40
2017-07-29T05:59:30.390Z,99.20
2017-07-29T06:01:57.450Z,98.70
2017-07-29T06:04:23.726Z,98.80
2017-07-29T06:06:50.010Z,98.00
2017-07-29T06:09:16.311Z,98.70
2017-07-29T06:11:42.598Z,98.80
2017-07-29T06:14:08.895Z,99.30
2017-07-29T06:16:35.245Z,99.50
2017-07-29T06:19:01.498Z,99.20
2017-07-29T06:21:29.537Z,99.10
2017-07-29T06:23:55.802Z,99.10
2017-07-29T06:26:22.086Z,98.60
2017-07-29T06:28:48.419Z,98.20
2017-07-29T06:31:14.706Z,98.30
2017-07-29T06:33:40.982Z,97.70
2017-07-29T06:36:07.275Z,97.40
2017-07-29T06:38:33.554Z,96.90
2017-07-29T06:40:59.850Z,96.80
2017-07-29T06:43:26.874Z,96.20
2017-07-29T06:45:54.227Z,96.20
2017-07-29T06:48:20.575Z,95.40
2017-07-29T06:50:46.887Z,95.30
2017-07-29T06:53:13.171Z,94.60
2017-07-29T06:55:40.195Z,94.60
2017-07-29T06:58:06.951Z,94.60
2017-07-29T07:00:33.496Z,92.80
2017-07-29T07:02:59.965Z,93.30
2017-07-29T07:05:26.347Z,94.50
2017-07-29T07:07:52.767Z,93.60
2017-07-29T07:10:19.195Z,93.30
2017-07-29T07:12:46.402Z,92.60
2017-07-29T07:15:12.862Z,92.70
2017-07-29T07:17:39.964Z,91.00
2017-07-29T07:20:07.179Z,90.00
2017-07-29T07:22:33.552Z,90.00
2017-07-29T07:24:59.931Z,90.00
2017-07-29T07:27:27.115Z,88.50
2017-07-29T07:29:54.187Z,89.90
2017-07-29T07:32:20.672Z,89.80
2017-07-29T07:34:47.092Z,89.00
2017-07-29T07:37:13.474Z,90.10
2017-07-29T07:39:39.866Z,86.60
2017-07-29T07:42:06.315Z,88.00
2017-07-29T07:44:33.817Z,90.00
2017-07-29T07:47:00.244Z,88.70
2017-07-29T07:49:26.659Z,87.90
2017-07-29T07:51:53.051Z,88.20
2017-07-29T07:54:19.435Z,84.90
2017-07-29T07:56:45.813Z,84.00
2017-07-29T07:59:12.211Z,85.30
2017-07-29T08:01:39.648Z,85.20
2017-07-29T08:04:06.073Z,82.20
2017-07-29T08:06:34.784Z,83.20
2017-07-29T08:09:01.199Z,81.00
2017-07-29T08:11:27.575Z,80.50
2017-07-29T08:13:54.015Z,79.00
2017-07-29T08:16:20.437Z,79.90
2017-07-29T08:18:46.833Z,77.50
2017-07-29T08:21:13.332Z,71.90
2017-07-29T08:23:39.748Z,71.90
2017-07-29T08:26:06.575Z,71.20
2017-07-29T08:28:33.025Z,71.20
2017-07-29T08:30:59.421Z,71.90
2017-07-29T08:33:25.832Z,68.60
2017-07-29T08:35:52.206Z,69.80
2017-07-29T08:38:19.319Z,66.20
2017-07-29T08:40:46.463Z,68.30
2017-07-29T08:43:12.819Z,68.40
2017-07-29T08:45:39.190Z,69.70
2017-07-29T08:48:06.687Z,65.30
2017-07-29T08:50:33.032Z,65.10
2017-07-29T08:52:59.411Z,60.80
2017-07-29T08:55:25.864Z,68.80
2017-07-29T08:57:52.259Z,62.70
2017-07-29T09:00:18.689Z,59.50
2017-07-29T09:02:45.071Z,63.70
2017-07-29T09:05:11.559Z,62.70
2017-07-29T09:07:37.987Z,65.10
2017-07-29T09:10:04.407Z,60.20
2017-07-29T09:12:30.794Z,59.50
2017-07-29T09:14:57.139Z,59.30
2017-07-29T09:17:23.520Z,59.60
2017-07-29T09:19:49.903Z,63.60
2017-07-29T09:22:17.258Z,62.50
2017-07-29T09:24:43.639Z,65.20
2017-07-29T09:27:09.981Z,58.70
2017-07-29T09:29:37.075Z,61.20
2017-07-29T09:32:03.467Z,61.00
2017-07-29T09:34:30.911Z,63.50
2017-07-29T09:36:57.251Z,59.10
2017-07-29T09:39:23.646Z,54.90
2017-07-29T09:41:50.020Z,48.70
2017-07-29T09:44:16.403Z,43.20
2017-07-29T09:46:42.827Z,40.10
2017-07-29T09:49:09.210Z,38.60
2017-07-29T09:51:35.577Z,35.60
2017-07-29T09:54:02.663Z,34.80
2017-07-29T09:56:29.015Z,34.10
2017-07-29T09:58:55.419Z,34.90
2017-07-29T10:01:21.820Z,32.90
2017-07-29T10:03:48.239Z,33.80
2017-07-29T10:06:14.597Z,31.20
2017-07-29T10:08:40.995Z,34.90
2017-07-29T10:11:07.391Z,36.30
2017-07-29T10:13:33.792Z,40.00
2017-07-29T10:16:01.176Z,41.10
2017-07-29T10:18:28.303Z,43.00
2017-07-29T10:20:54.691Z,42.40
2017-07-29T10:23:21.085Z,46.90
2017-07-29T10:25:47.484Z,48.60
2017-07-29T10:28:14.583Z,47.60
2017-07-29T10:30:41.675Z,51.20
2017-07-29T10:33:08.059Z,51.20
2017-07-29T10:35:34.439Z,53.00
2017-07-29T10:38:01.581Z,53.80
2017-07-29T10:40:27.959Z,53.10
2017-07-29T10:42:54.398Z,52.10
2017-07-29T10:45:20.857Z,50.40
2017-07-29T10:47:47.939Z,51.70
2017-07-29T10:50:14.282Z,51.70
2017-07-29T10:52:41.412Z,53.70
2017-07-29T10:55:07.791Z,53.60
2017-07-29T10:57:34.887Z,53.40
2017-07-29T11:00:02.020Z,53.00
2017-07-29T11:02:28.403Z,53.10
2017-07-29T11:04:54.751Z,54.20
2017-07-29T11:07:21.867Z,56.10
2017-07-29T11:09:48.267Z,55.70
2017-07-29T11:12:15.606Z,54.80
2017-07-29T11:14:42.023Z,55.60
2017-07-29T11:17:08.410Z,54.30
2017-07-29T11:19:35.542Z,51.80
2017-07-29T11:22:01.952Z,51.70
2017-07-29T11:24:29.095Z,54.70
2017-07-29T11:26:55.506Z,54.70
2017-07-29T11:29:21.961Z,54.60
2017-07-29T11:31:49.435Z,55.30
2017-07-29T11:34:15.783Z,53.90
2017-07-29T11:36:42.187Z,55.30
2017-07-29T11:39:09.321Z,53.80
2017-07-29T11:41:36.407Z,55.70
2017-07-29T11:44:02.811Z,55.70
2017-07-29T11:46:29.191Z,55.30
2017-07-29T11:48:56.293Z,53.40
2017-07-29T11:51:22.695Z,53.40
2017-07-29T11:53:49.063Z,54.40
2017-07-29T11:56:15.438Z,54.80
2017-07-29T11:58:41.812Z,53.90
2017-07-29T12:01:08.198Z,52.90
2017-07-29T12:03:34.623Z,52.80
2017-07-29T12:06:01.000Z,54.00
2017-07-29T12:08:27.389Z,52.30
2017-07-29T12:10:53.762Z,53.50
2017-07-29T12:13:20.150Z,56.10
2017-07-29T12:15:46.503Z,52.70
2017-07-29T12:18:13.647Z,53.30
2017-07-29T12:20:40.044Z,53.20
2017-07-29T12:23:07.175Z,54.30
2017-07-29T12:25:34.279Z,51.20
2017-07-29T12:28:00.687Z,51.20
2017-07-29T12:30:27.073Z,51.80
2017-07-29T12:32:55.483Z,51.50
2017-07-29T12:35:22.010Z,52.30
2017-07-29T12:37:48.488Z,50.50
2017-07-29T12:40:14.878Z,50.20
2017-07-29T12:42:41.287Z,50.90
2017-07-29T12:45:07.629Z,52.20
2017-07-29T12:47:34.027Z,50.10
2017-07-29T12:50:00.439Z,52.60
2017-07-29T12:52:26.767Z,51.50
2017-07-29T12:54:53.139Z,49.10
2017-07-29T12:57:20.252Z,43.80
2017-07-29T12:59:46.660Z,43.70
2017-07-29T13:02:13.039Z,36.40
2017-07-29T13:04:39.444Z,38.10
2017-07-29T13:07:05.768Z,38.40
2017-07-29T13:09:32.078Z,38.10
2017-07-29T13:11:58.370Z,40.50
2017-07-29T13:14:24.622Z,40.50
2017-07-29T13:16:50.923Z,41.40
2017-07-29T13:19:17.202Z,45.80
2017-07-29T13:21:43.490Z,46.40
2017-07-29T13:24:09.746Z,44.10
2017-07-29T13:26:36.018Z,42.90
2017-07-29T13:29:02.307Z,40.30
2017-07-29T13:31:28.574Z,36.20
2017-07-29T13:33:54.862Z,31.60
2017-07-29T13:36:21.133Z,29.70
2017-07-29T13:38:47.405Z,27.90
2017-07-29T13:41:13.715Z,27.60
2017-07-29T13:43:39.963Z,26.60
2017-07-29T13:46:06.225Z,26.00
2017-07-29T13:48:32.550Z,26.20
2017-07-29T13:50:58.859Z,24.10
2017-07-29T13:53:25.160Z,23.50
2017-07-29T13:55:51.447Z,25.10
2017-07-29T13:58:17.741Z,27.60
2017-07-29T14:00:44.058Z,28.10
2017-07-29T14:03:10.363Z,27.20
2017-07-29T14:05:36.634Z,27.60
2017-07-29T14:08:02.882Z,27.10
2017-07-29T14:10:29.226Z,24.80
2017-07-29T14:12:55.522Z,25.20
2017-07-29T14:15:21.758Z,28.10
2017-07-29T14:17:48.761Z,29.90
2017-07-29T14:20:15.038Z,29.90
2017-07-29T14:22:41.298Z,29.50
2017-07-29T14:25:07.594Z,31.60
2017-07-29T14:27:33.915Z,31.10
2017-07-29T14:30:00.183Z,31.20
2017-07-29T14:32:26.501Z,33.40
2017-07-29T14:34:52.912Z,33.00
2017-07-29T14:37:19.170Z,32.70
2017-07-29T14:39:45.474Z,31.80
2017-07-29T14:42:11.743Z,31.30
2017-07-29T14:44:38.001Z,28.00
2017-07-29T14:47:04.347Z,25.80
2017-07-29T14:49:31.658Z,26.50
2017-07-29T14:51:57.922Z,28.90
2017-07-29T14:54:24.263Z,29.20
2017-07-29T14:56:51.282Z,29.70
2017-07-29T14:59:17.551Z,29.70
2017-07-29T15:01:43.843Z,30.00
2017-07-29T15:04:10.108Z,28.90
2017-07-29T15:06:36.378Z,32.00
2017-07-29T15:09:02.739Z,31.60
2017-07-29T15:11:28.995Z,29.80
2017-07-29T15:13:55.286Z,31.80
2017-07-29T15:16:21.590Z,30.50
2017-07-29T15:18:48.599Z,31.70
2017-07-29T15:21:14.851Z,31.70
2017-07-29T15:23:41.130Z,34.00
2017-07-29T15:26:07.386Z,37.10
2017-07-29T15:28:33.673Z,39.80
2017-07-29T15:30:59.993Z,39.80
2017-07-29T15:33:26.269Z,43.00
2017-07-29T15:35:52.545Z,42.10
2017-07-29T15:38:19.854Z,44.80
2017-07-29T15:40:46.124Z,45.70
2017-07-29T15:43:12.494Z,45.20
2017-07-29T15:45:38.863Z,44.00
2017-07-29T15:48:05.234Z,42.90
2017-07-29T15:53:08.339Z,45.00
2017-07-29T15:55:35.091Z,45.10
2017-07-29T15:58:01.469Z,44.60
2017-07-29T16:00:27.895Z,46.90
2017-07-29T16:02:54.279Z,46.80
2017-07-29T16:05:20.619Z,48.00
2017-07-29T16:07:47.027Z,47.70
2017-07-29T16:10:13.421Z,48.00
2017-07-29T16:12:39.812Z,49.40
2017-07-29T16:15:06.219Z,48.00
2017-07-29T16:17:33.421Z,49.70
2017-07-29T16:19:59.872Z,49.60
2017-07-29T16:22:26.291Z,46.80
2017-07-29T16:24:53.403Z,50.00
2017-07-29T16:27:19.896Z,49.90
2017-07-29T16:29:46.283Z,51.70
2017-07-29T16:32:12.682Z,52.40
2017-07-29T16:34:39.112Z,52.10
2017-07-29T16:37:05.535Z,52.40
2017-07-29T16:39:31.931Z,54.80
2017-07-29T16:41:58.343Z,52.90
2017-07-29T16:44:24.739Z,53.10
2017-07-29T16:46:51.136Z,53.70
2017-07-29T16:49:17.591Z,56.60
2017-07-29T16:51:45.091Z,54.00
2017-07-29T16:54:11.500Z,54.60
2017-07-29T16:56:37.890Z,52.60
2017-07-29T16:59:04.290Z,55.30
2017-07-29T17:01:30.654Z,54.70
2017-07-29T17:03:57.075Z,57.10
2017-07-29T17:06:23.466Z,55.00
2017-07-29T17:08:49.884Z,55.80
2017-07-29T17:11:16.206Z,55.00
2017-07-29T17:13:42.632Z,55.90
2017-07-29T17:16:09.112Z,57.20
2017-07-29T17:18:35.472Z,55.10
2017-07-29T17:21:01.887Z,54.10
2017-07-29T17:23:28.277Z,56.60
2017-07-29T17:25:54.656Z,59.40
2017-07-29T17:28:21.080Z,58.00
2017-07-29T17:30:47.415Z,60.70
2017-07-29T17:33:13.815Z,60.30
2017-07-29T17:35:40.221Z,59.80
2017-07-29T17:38:06.717Z,59.00
2017-07-29T17:40:33.127Z,59.40
2017-07-29T17:42:59.593Z,59.60
2017-07-29T17:45:25.963Z,58.10
2017-07-29T17:47:52.403Z,58.60
2017-07-29T17:50:18.784Z,57.60
2017-07-29T17:52:45.172Z,59.70
2017-07-29T17:55:12.344Z,58.30
2017-07-29T17:57:38.729Z,58.10
2017-07-29T18:00:05.899Z,59.40
2017-07-29T18:02:32.478Z,59.40
2017-07-29T18:04:58.817Z,60.10
2017-07-29T18:07:25.834Z,63.10
2017-07-29T18:09:52.134Z,63.00
2017-07-29T18:12:18.447Z,59.70
2017-07-29T18:14:44.706Z,62.80
2017-07-29T18:17:11.027Z,63.60
2017-07-29T18:19:37.326Z,64.00
2017-07-29T18:22:03.579Z,64.10
2017-07-29T18:24:29.850Z,61.70
2017-07-29T18:26:56.150Z,61.50
2017-07-29T18:29:22.398Z,62.40
2017-07-29T18:31:48.751Z,63.80
2017-07-29T18:34:17.959Z,66.40
2017-07-29T18:36:44.234Z,65.40
2017-07-29T18:39:10.525Z,66.10
2017-07-29T18:41:36.844Z,66.30
2017-07-29T18:44:05.222Z,65.50
2017-07-29T18:46:31.474Z,67.20
2017-07-29T18:48:58.555Z,67.50
2017-07-29T18:51:24.880Z,67.50
2017-07-29T18:53:51.182Z,70.60
2017-07-29T18:56:17.500Z,70.10
2017-07-29T18:58:43.819Z,69.20
2017-07-29T19:01:10.132Z,71.80
2017-07-29T19:03:36.411Z,71.40
2017-07-29T19:06:03.476Z,74.00
2017-07-29T19:08:29.758Z,73.90
2017-07-29T19:10:56.058Z,74.30
2017-07-29T19:13:23.103Z,73.40
2017-07-29T19:15:49.543Z,73.40
2017-07-29T19:18:15.938Z,75.80
2017-07-29T19:20:42.307Z,76.40
2017-07-29T19:23:09.508Z,77.60
2017-07-29T19:25:35.903Z,77.70
2017-07-29T19:28:02.259Z,76.20
2017-07-29T19:30:28.683Z,77.70
2017-07-29T19:32:56.979Z,77.40
2017-07-29T19:35:24.083Z,78.50
2017-07-29T19:37:50.455Z,78.50
2017-07-29T19:40:16.879Z,77.80
2017-07-29T19:42:43.247Z,80.00
2017-07-29T19:45:10.375Z,79.40
2017-07-29T19:47:36.775Z,79.30
2017-07-29T19:50:03.191Z,80.20
2017-07-29T19:52:29.627Z,82.20
2017-07-29T19:54:56.012Z,82.10
2017-07-29T19:57:22.440Z,83.20
2017-07-29T19:59:48.828Z,82.40
2017-07-29T20:02:15.210Z,84.10
2017-07-29T20:04:41.599Z,84.40
2017-07-29T20:07:18.135Z,85.80
2017-07-29T20:09:44.571Z,86.60
2017-07-29T20:12:11.711Z,86.40
2017-07-29T20:14:38.839Z,86.70
2017-07-29T20:17:05.300Z,86.70
2017-07-29T20:19:31.691Z,87.80
2017-07-29T20:21:58.775Z,88.80
2017-07-29T20:24:25.915Z,88.10
2017-07-29T20:26:52.295Z,88.10
2017-07-29T20:29:18.659Z,89.70
2017-07-29T20:31:45.875Z,90.40
2017-07-29T20:34:12.259Z,90.30
2017-07-29T20:36:38.647Z,89.80
2017-07-29T20:39:05.093Z,90.80
2017-07-29T20:41:31.452Z,91.30
2017-07-29T20:43:57.859Z,90.70
2017-07-29T20:46:24.244Z,90.40
2017-07-29T20:48:50.587Z,91.00
2017-07-29T20:51:18.002Z,90.70
2017-07-29T20:53:44.404Z,91.10
2017-07-29T20:56:10.762Z,91.30
2017-07-29T20:58:37.911Z,91.90
2017-07-29T21:01:04.411Z,91.70
2017-07-29T21:03:30.811Z,91.90
2017-07-29T21:05:57.217Z,91.50
2017-07-29T21:08:23.607Z,92.00
2017-07-29T21:10:49.971Z,92.20
2017-07-29T21:13:16.453Z,92.20
2017-07-29T21:15:42.815Z,92.50
2017-07-29T21:18:09.224Z,92.90
2017-07-29T21:20:35.625Z,92.80
2017-07-29T21:23:02.033Z,92.60
2017-07-29T21:25:28.467Z,93.30
2017-07-29T21:27:54.867Z,93.80
2017-07-29T21:30:21.247Z,93.60
2017-07-29T21:32:47.600Z,93.40
2017-07-29T21:35:13.983Z,93.70
2017-07-29T21:37:40.387Z,93.90
2017-07-29T21:40:06.779Z,94.20
2017-07-29T21:42:33.187Z,94.30
2017-07-29T21:44:59.759Z,94.80
2017-07-29T21:47:27.240Z,94.50
2017-07-29T21:49:53.647Z,95.10
2017-07-29T21:52:19.986Z,95.30
2017-07-29T21:54:46.387Z,95.20
2017-07-29T21:57:12.786Z,95.70
2017-07-29T21:59:39.131Z,95.80
2017-07-29T22:02:05.488Z,95.40
2017-07-29T22:04:32.629Z,96.00
2017-07-29T22:06:59.743Z,95.80
2017-07-29T22:09:26.159Z,95.80
2017-07-29T22:11:52.552Z,96.10
2017-07-29T22:14:18.911Z,96.10
2017-07-29T22:16:45.326Z,96.20
2017-07-29T22:19:11.717Z,96.60
2017-07-29T22:21:38.107Z,96.40
2017-07-29T22:24:04.488Z,96.70
2017-07-29T22:26:31.707Z,96.70
2017-07-29T22:28:58.072Z,96.90
2017-07-29T22:31:24.491Z,97.10
2017-07-29T22:33:50.839Z,97.10
2017-07-29T22:36:17.434Z,97.30
2017-07-29T22:38:43.911Z,97.40
2017-07-29T22:41:10.239Z,97.00
2017-07-29T22:43:36.655Z,97.10
2017-07-29T22:46:03.057Z,97.50
2017-07-29T22:48:29.443Z,97.60
2017-07-29T22:50:55.780Z,97.40
2017-07-29T22:53:22.215Z,97.80
2017-07-29T22:55:48.595Z,97.80
2017-07-29T22:58:15.702Z,97.50
2017-07-29T23:00:42.098Z,97.40
2017-07-29T23:03:08.505Z,97.70
2017-07-29T23:05:34.859Z,97.90
2017-07-29T23:08:01.336Z,98.20
2017-07-29T23:10:27.695Z,98.20
2017-07-29T23:12:54.827Z,98.90
2017-07-29T23:15:21.959Z,98.60
2017-07-29T23:17:48.344Z,98.60
2017-07-29T23:20:14.707Z,98.60
2017-07-29T23:22:41.123Z,98.90
2017-07-29T23:25:08.249Z,98.40
2017-07-29T23:27:34.663Z,98.40
2017-07-29T23:30:02.822Z,98.60
2017-07-29T23:32:29.235Z,98.60
2017-07-29T23:34:55.591Z,98.40
2017-07-29T23:37:21.987Z,98.30
2017-07-29T23:39:49.111Z,98.90
2017-07-29T23:42:15.480Z,98.90
2017-07-29T23:44:41.890Z,99.00
2017-07-29T23:47:08.267Z,99.00
2017-07-29T23:49:35.355Z,99.20
2017-07-29T23:52:01.769Z,99.20
2017-07-29T23:54:28.165Z,99.60
2017-07-29T23:56:54.583Z,99.70
2017-07-29T23:59:21.326Z,99.40
